createdAt,value
2019-03-19T00:00:36.248Z,0.20
2019-03-19T00:03:06.651Z,0.20
2019-03-19T00:05:36.978Z,0.20
2019-03-19T00:08:08.613Z,0.10
2019-03-19T00:10:38.963Z,0.10
2019-03-19T00:13:09.286Z,0.00
2019-03-19T00:15:39.628Z,0.00
2019-03-19T00:18:09.971Z,0.00
2019-03-19T00:20:40.296Z,0.00
2019-03-19T00:23:10.624Z,-0.10
2019-03-19T00:25:47.190Z,-0.10
2019-03-19T00:28:17.517Z,-0.10
2019-03-19T00:30:47.875Z,-0.10
2019-03-19T00:33:18.208Z,-0.20
2019-03-19T00:35:48.551Z,-0.20
2019-03-19T00:38:18.894Z,-0.20
2019-03-19T00:40:49.231Z,-0.20
2019-03-19T00:43:19.575Z,-0.20
2019-03-19T00:45:49.917Z,-0.20
2019-03-19T00:48:20.258Z,-0.20
2019-03-19T00:50:50.607Z,-0.20
2019-03-19T00:53:20.963Z,-0.20
2019-03-19T00:55:51.301Z,-0.30
2019-03-19T00:58:21.634Z,-0.20
2019-03-19T01:00:52.008Z,-0.20
2019-03-19T01:03:22.351Z,-0.20
2019-03-19T01:05:52.680Z,-0.20
2019-03-19T01:08:23.024Z,-0.30
2019-03-19T01:10:53.353Z,-0.30
2019-03-19T01:13:23.697Z,-0.20
2019-03-19T01:15:54.023Z,-0.20
2019-03-19T01:18:24.369Z,-0.10
2019-03-19T01:20:54.721Z,-0.10
2019-03-19T01:23:25.056Z,-0.20
2019-03-19T01:25:55.953Z,-0.20
2019-03-19T01:28:27.479Z,-0.20
2019-03-19T01:30:57.835Z,-0.20
2019-03-19T01:33:28.188Z,-0.30
2019-03-19T01:35:58.512Z,-0.30
2019-03-19T01:38:48.193Z,-0.30
2019-03-19T01:41:18.524Z,-0.30
2019-03-19T01:43:48.864Z,-0.30
2019-03-19T01:46:19.194Z,-0.30
2019-03-19T01:48:49.619Z,-0.30
2019-03-19T01:51:19.958Z,-0.40
2019-03-19T01:53:50.310Z,-0.40
2019-03-19T01:56:20.643Z,-0.40
2019-03-19T01:58:50.985Z,-0.40
2019-03-19T02:01:21.403Z,-0.40
2019-03-19T02:03:51.734Z,-0.40
2019-03-19T02:06:23.226Z,-0.40
2019-03-19T02:08:53.564Z,-0.50
2019-03-19T02:11:23.911Z,-0.50
2019-03-19T02:13:54.254Z,-0.50
2019-03-19T02:16:24.589Z,-0.50
2019-03-19T02:18:54.947Z,-0.50
2019-03-19T02:21:25.278Z,-0.60
2019-03-19T02:23:55.611Z,-0.60
2019-03-19T02:26:25.953Z,-0.60
2019-03-19T02:28:56.301Z,-0.60
2019-03-19T02:31:26.629Z,-0.60
2019-03-19T02:33:56.974Z,-0.60
2019-03-19T02:36:27.311Z,-0.60
2019-03-19T02:38:57.653Z,-0.60
2019-03-19T02:41:27.991Z,-0.70
2019-03-19T02:43:58.336Z,-0.70
2019-03-19T02:46:30.599Z,-0.70
2019-03-19T02:49:00.946Z,-0.70
2019-03-19T02:51:31.268Z,-0.70
2019-03-19T02:54:01.618Z,-0.70
2019-03-19T02:56:33.547Z,-0.70
2019-03-19T02:59:04.070Z,-0.80
2019-03-19T03:01:34.404Z,-0.80
2019-03-19T03:04:04.988Z,-0.80
2019-03-19T03:06:35.319Z,-0.80
2019-03-19T03:09:07.536Z,-0.80
2019-03-19T03:11:37.870Z,-0.80
2019-03-19T03:14:08.205Z,-0.80
2019-03-19T03:16:38.546Z,-0.80
2019-03-19T03:19:09.874Z,-0.80
2019-03-19T03:21:40.217Z,-0.80
2019-03-19T03:24:10.685Z,-0.80
2019-03-19T03:26:47.382Z,-0.80
2019-03-19T03:29:13.063Z,-0.80
2019-03-19T03:31:43.397Z,-0.80
2019-03-19T03:34:13.745Z,-0.90
2019-03-19T03:36:44.067Z,-0.90
2019-03-19T03:39:14.419Z,-0.90
2019-03-19T03:41:44.750Z,-0.90
2019-03-19T03:44:15.085Z,-0.90
2019-03-19T03:46:45.418Z,-0.90
2019-03-19T03:49:15.745Z,-0.90
2019-03-19T03:51:46.079Z,-0.90
2019-03-19T03:54:16.414Z,-0.90
2019-03-19T03:57:00.939Z,-0.90
2019-03-19T03:59:18.790Z,-0.90
2019-03-19T04:01:49.099Z,-0.90
2019-03-19T04:04:19.455Z,-0.90
2019-03-19T04:06:49.786Z,-0.90
2019-03-19T04:09:20.121Z,-1.00
2019-03-19T04:11:50.458Z,-1.00
2019-03-19T04:14:20.877Z,-1.00
2019-03-19T04:16:51.213Z,-1.00
2019-03-19T04:19:21.563Z,-1.00
2019-03-19T04:21:51.898Z,-1.10
2019-03-19T04:24:22.321Z,-1.10
2019-03-19T04:26:53.628Z,-1.10
2019-03-19T04:29:23.965Z,-1.10
2019-03-19T04:32:06.594Z,-1.10
2019-03-19T04:34:36.922Z,-1.10
2019-03-19T04:37:07.346Z,-1.10
2019-03-19T04:39:37.679Z,-1.10
2019-03-19T04:42:08.020Z,-1.10
2019-03-19T04:44:39.672Z,-1.10
2019-03-19T04:47:10.001Z,-1.10
2019-03-19T04:49:40.356Z,-1.10
2019-03-19T04:52:10.671Z,-1.10
2019-03-19T04:54:41.017Z,-1.10
2019-03-19T04:57:12.750Z,-1.10
2019-03-19T04:59:43.307Z,-1.10
2019-03-19T05:02:13.638Z,-1.10
2019-03-19T05:04:43.989Z,-1.10
2019-03-19T05:07:14.325Z,-1.20
2019-03-19T05:09:45.644Z,-1.10
2019-03-19T05:12:15.980Z,-1.20
2019-03-19T05:14:47.386Z,-1.20
2019-03-19T05:17:17.725Z,-1.20
2019-03-19T05:19:48.068Z,-1.20
2019-03-19T05:22:18.420Z,-1.20
2019-03-19T05:24:48.774Z,-1.20
2019-03-19T05:27:19.110Z,-1.20
2019-03-19T05:29:49.450Z,-1.20
2019-03-19T05:32:19.786Z,-1.20
2019-03-19T05:34:50.139Z,-1.20
2019-03-19T05:37:20.469Z,-1.10
2019-03-19T05:39:50.811Z,-1.10
2019-03-19T05:42:21.136Z,-1.20
2019-03-19T05:44:51.482Z,-1.20
2019-03-19T05:47:22.757Z,-1.20
2019-03-19T05:49:54.156Z,-1.20
2019-03-19T05:52:24.495Z,-1.20
2019-03-19T05:54:54.835Z,-1.20
2019-03-19T05:57:25.180Z,-1.20
2019-03-19T05:59:55.529Z,-1.20
2019-03-19T06:02:25.859Z,-1.20
2019-03-19T06:04:56.209Z,-1.10
2019-03-19T06:07:26.545Z,-1.10
2019-03-19T06:09:56.883Z,-1.10
2019-03-19T06:12:27.224Z,-1.10
2019-03-19T06:14:57.568Z,-1.00
2019-03-19T06:17:27.891Z,-1.00
2019-03-19T06:19:58.225Z,-1.00
2019-03-19T06:22:28.561Z,-1.00
2019-03-19T06:25:00.447Z,-0.90
2019-03-19T06:27:30.812Z,-0.90
2019-03-19T06:30:01.171Z,-0.70
2019-03-19T06:32:31.513Z,-0.50
2019-03-19T06:35:02.001Z,-0.30
2019-03-19T06:37:32.352Z,-0.10
2019-03-19T06:40:02.711Z,0.30
2019-03-19T06:42:33.044Z,0.70
2019-03-19T06:45:03.377Z,1.20
2019-03-19T06:47:33.711Z,1.90
2019-03-19T06:50:09.491Z,2.40
2019-03-19T06:52:39.829Z,2.40
2019-03-19T06:55:15.709Z,2.50
2019-03-19T06:57:46.042Z,2.60
2019-03-19T07:00:24.423Z,2.80
2019-03-19T07:02:55.581Z,2.90
2019-03-19T07:05:26.925Z,3.00
2019-03-19T07:07:57.267Z,3.10
2019-03-19T07:10:27.597Z,3.20
2019-03-19T07:12:57.939Z,3.30
2019-03-19T07:15:29.258Z,3.50
2019-03-19T07:17:59.586Z,3.60
2019-03-19T07:20:30.687Z,3.60
2019-03-19T07:23:01.091Z,3.70
2019-03-19T07:25:31.433Z,3.70
2019-03-19T07:28:01.885Z,3.80
2019-03-19T07:30:32.241Z,3.90
2019-03-19T07:33:02.571Z,3.90
2019-03-19T07:35:32.907Z,4.00
2019-03-19T07:38:03.237Z,4.00
2019-03-19T07:40:34.551Z,4.10
2019-03-19T07:43:04.939Z,4.20
2019-03-19T07:45:35.280Z,4.20
2019-03-19T07:48:06.225Z,4.30
2019-03-19T07:50:36.563Z,4.40
2019-03-19T07:53:06.895Z,4.50
2019-03-19T07:55:37.236Z,4.60
2019-03-19T07:58:07.575Z,4.70
2019-03-19T08:00:37.907Z,4.80
2019-03-19T08:03:16.154Z,5.00
2019-03-19T08:05:40.377Z,5.10
2019-03-19T08:08:10.727Z,5.20
2019-03-19T08:10:41.086Z,5.30
2019-03-19T08:13:11.541Z,5.40
2019-03-19T08:15:41.892Z,5.50
2019-03-19T08:18:12.234Z,5.70
2019-03-19T08:20:42.567Z,5.80
2019-03-19T08:23:12.907Z,5.90
2019-03-19T08:25:43.241Z,5.90
2019-03-19T08:28:13.586Z,6.00
2019-03-19T08:30:43.931Z,6.10
2019-03-19T08:33:14.283Z,6.30
2019-03-19T08:35:44.600Z,6.40
2019-03-19T08:38:14.960Z,6.60
2019-03-19T08:40:45.298Z,6.80
2019-03-19T08:43:15.626Z,7.10
2019-03-19T08:45:45.981Z,7.30
2019-03-19T08:48:16.339Z,7.80
2019-03-19T08:50:46.696Z,8.20
2019-03-19T08:53:17.033Z,8.70
2019-03-19T08:55:47.374Z,9.30
2019-03-19T08:58:17.715Z,9.80
2019-03-19T09:00:48.386Z,10.40
2019-03-19T09:03:18.733Z,10.70
2019-03-19T09:05:49.079Z,11.10
2019-03-19T09:08:19.431Z,11.30
2019-03-19T09:10:49.754Z,11.60
2019-03-19T09:13:20.217Z,11.90
2019-03-19T09:15:50.500Z,12.40
2019-03-19T09:18:20.860Z,12.70
2019-03-19T09:20:51.201Z,13.10
2019-03-19T09:23:21.560Z,13.20
2019-03-19T09:25:51.899Z,13.60
2019-03-19T09:28:22.253Z,14.00
2019-03-19T09:30:52.604Z,14.20
2019-03-19T09:33:22.943Z,14.40
2019-03-19T09:35:53.295Z,14.50
2019-03-19T09:38:23.636Z,14.50
2019-03-19T09:40:53.995Z,14.50
2019-03-19T09:43:24.347Z,14.60
2019-03-19T09:45:54.676Z,14.60
2019-03-19T09:48:25.029Z,14.60
2019-03-19T09:50:55.404Z,14.50
2019-03-19T09:53:25.835Z,14.40
2019-03-19T09:55:56.177Z,14.20
2019-03-19T09:58:26.601Z,14.20
2019-03-19T10:00:56.942Z,14.20
2019-03-19T10:03:27.370Z,14.10
2019-03-19T10:05:57.718Z,14.20
2019-03-19T10:08:28.070Z,14.20
2019-03-19T10:10:58.414Z,14.40
2019-03-19T10:13:28.894Z,14.80
2019-03-19T10:16:00.209Z,15.10
2019-03-19T10:18:30.550Z,15.50
2019-03-19T10:21:00.895Z,16.00
2019-03-19T10:23:31.255Z,16.00
2019-03-19T10:26:01.614Z,16.10
2019-03-19T10:28:31.953Z,16.20
2019-03-19T10:31:02.301Z,16.20
2019-03-19T10:33:32.643Z,16.20
2019-03-19T10:36:02.983Z,16.20
2019-03-19T10:38:33.326Z,16.20
2019-03-19T10:41:04.027Z,16.00
2019-03-19T10:43:34.370Z,15.90
2019-03-19T10:46:04.795Z,15.80
2019-03-19T10:48:35.154Z,15.70
2019-03-19T10:51:05.671Z,15.50
2019-03-19T10:53:36.011Z,15.40
2019-03-19T10:56:06.360Z,15.30
2019-03-19T10:58:36.704Z,15.20
2019-03-19T11:01:07.068Z,15.20
2019-03-19T11:03:37.408Z,15.30
2019-03-19T11:06:07.845Z,15.40
2019-03-19T11:08:38.190Z,15.60
2019-03-19T11:11:08.549Z,15.80
2019-03-19T11:13:38.915Z,16.00
2019-03-19T11:16:09.262Z,16.40
2019-03-19T11:18:39.614Z,16.40
2019-03-19T11:21:09.959Z,16.50
2019-03-19T11:23:40.391Z,16.60
2019-03-19T11:26:10.813Z,16.60
2019-03-19T11:28:41.161Z,16.80
2019-03-19T11:31:11.505Z,16.80
2019-03-19T11:33:41.850Z,16.80
2019-03-19T11:36:12.276Z,16.80
2019-03-19T11:38:42.627Z,16.70
2019-03-19T11:41:13.038Z,16.90
2019-03-19T11:43:43.383Z,17.00
2019-03-19T11:46:13.734Z,16.90
2019-03-19T11:48:44.101Z,16.90
2019-03-19T11:51:14.456Z,16.90
2019-03-19T11:53:45.792Z,16.70
2019-03-19T11:56:16.137Z,16.80
2019-03-19T11:58:46.500Z,16.90
2019-03-19T12:01:16.848Z,17.00
2019-03-19T12:03:59.361Z,17.10
2019-03-19T12:06:29.789Z,17.10
2019-03-19T12:09:00.136Z,16.80
2019-03-19T12:11:32.103Z,16.50
2019-03-19T12:14:02.455Z,16.10
2019-03-19T12:16:32.794Z,15.80
2019-03-19T12:19:03.156Z,15.70
2019-03-19T12:21:33.509Z,15.60
2019-03-19T12:24:03.844Z,15.60
2019-03-19T12:26:34.231Z,15.60
2019-03-19T12:29:04.546Z,15.50
2019-03-19T12:31:34.872Z,15.40
2019-03-19T12:34:05.301Z,15.20
2019-03-19T12:36:35.677Z,15.20
2019-03-19T12:39:09.779Z,15.20
2019-03-19T12:41:40.331Z,15.10
2019-03-19T12:44:10.674Z,14.90
2019-03-19T12:46:41.020Z,14.80
2019-03-19T12:49:11.449Z,14.90
2019-03-19T12:51:41.991Z,14.90
2019-03-19T12:54:12.344Z,14.90
2019-03-19T12:56:42.690Z,14.90
2019-03-19T12:59:20.222Z,14.90
2019-03-19T13:01:45.086Z,15.00
2019-03-19T13:04:15.535Z,15.00
2019-03-19T13:06:45.896Z,14.90
2019-03-19T13:09:16.229Z,14.80
2019-03-19T13:11:46.602Z,14.70
2019-03-19T13:14:16.947Z,14.70
2019-03-19T13:16:47.297Z,14.60
2019-03-19T13:19:17.632Z,14.60
2019-03-19T13:21:48.010Z,14.50
2019-03-19T13:24:18.348Z,14.60
2019-03-19T13:26:48.690Z,14.60
2019-03-19T13:29:19.035Z,14.60
2019-03-19T13:31:49.377Z,14.40
2019-03-19T13:34:19.724Z,14.30
2019-03-19T13:36:50.063Z,14.30
2019-03-19T13:39:20.407Z,14.30
2019-03-19T13:41:50.737Z,14.20
2019-03-19T13:44:41.081Z,14.00
2019-03-19T13:47:29.490Z,14.00
2019-03-19T13:49:59.825Z,13.90
2019-03-19T13:52:36.217Z,13.80
2019-03-19T13:55:11.061Z,13.60
2019-03-19T13:57:49.900Z,13.50
2019-03-19T14:00:34.342Z,13.40
2019-03-19T14:03:04.858Z,13.30
2019-03-19T14:05:39.633Z,13.20
2019-03-19T14:08:11.513Z,13.10
2019-03-19T14:10:41.857Z,13.10
2019-03-19T14:13:28.733Z,13.00
2019-03-19T14:15:59.061Z,12.90
2019-03-19T14:18:34.607Z,12.90
2019-03-19T14:21:14.190Z,12.80
2019-03-19T14:23:44.885Z,12.80
2019-03-19T14:26:19.388Z,12.80
2019-03-19T14:28:57.101Z,12.80
2019-03-19T14:31:28.983Z,12.80
2019-03-19T14:33:59.344Z,12.70
2019-03-19T14:42:44.875Z,12.50
2019-03-19T14:45:17.494Z,12.50
2019-03-19T14:47:56.818Z,12.50
2019-03-19T14:50:27.581Z,12.30
2019-03-19T14:53:05.392Z,12.30
2019-03-19T14:55:35.740Z,12.20
2019-03-19T14:58:37.985Z,12.20
2019-03-19T15:01:19.199Z,12.20
2019-03-19T15:03:47.430Z,12.20
2019-03-19T15:09:07.695Z,12.10
2019-03-19T15:11:39.569Z,12.10
2019-03-19T15:14:24.833Z,12.10
2019-03-19T15:17:04.524Z,12.20
2019-03-19T15:19:27.224Z,12.20
2019-03-19T15:22:15.415Z,12.20
2019-03-19T15:24:45.760Z,12.30
2019-03-19T15:30:19.391Z,12.30
2019-03-19T15:38:44.422Z,12.40
2019-03-19T15:41:14.753Z,12.40
2019-03-19T15:46:58.821Z,12.50
2019-03-19T15:52:19.487Z,12.50
2019-03-19T15:54:49.820Z,12.40
2019-03-19T15:57:21.800Z,12.40
2019-03-19T16:00:04.280Z,12.40
2019-03-19T16:05:51.361Z,12.30
2019-03-19T16:08:23.236Z,12.20
2019-03-19T16:10:54.816Z,12.10
2019-03-19T16:13:26.700Z,12.10
2019-03-19T16:16:23.538Z,12.10
2019-03-19T16:19:11.631Z,12.10
2019-03-19T16:21:51.136Z,12.00
2019-03-19T16:27:22.855Z,12.00
2019-03-19T16:29:56.015Z,12.00
2019-03-19T16:32:26.351Z,11.90
2019-03-19T16:35:01.697Z,11.80
2019-03-19T16:40:35.854Z,11.70
2019-03-19T16:43:07.721Z,11.70
2019-03-19T16:45:38.078Z,11.60
2019-03-19T16:48:09.487Z,11.50
2019-03-19T16:53:39.254Z,11.40
2019-03-19T16:56:27.831Z,11.30
2019-03-19T16:58:58.141Z,11.30
2019-03-19T17:01:28.482Z,11.20
2019-03-19T17:03:58.957Z,11.20
2019-03-19T17:06:32.128Z,11.10
2019-03-19T17:11:53.090Z,11.00
2019-03-19T17:14:26.630Z,11.00
2019-03-19T17:16:57.051Z,10.90
2019-03-19T17:19:30.462Z,10.90
2019-03-19T17:22:07.744Z,10.80
2019-03-19T17:24:38.077Z,10.80
2019-03-19T17:27:19.077Z,10.70
2019-03-19T17:30:05.717Z,10.60
2019-03-19T17:32:37.673Z,10.50
2019-03-19T17:41:14.639Z,10.30
2019-03-19T17:43:46.516Z,10.20
2019-03-19T17:46:16.897Z,10.10
2019-03-19T17:48:47.231Z,10.00
2019-03-19T17:51:18.807Z,9.90
2019-03-19T17:57:49.254Z,9.70
2019-03-19T18:00:39.037Z,9.60
2019-03-19T18:03:27.354Z,9.40
2019-03-19T18:06:33.949Z,9.30
2019-03-19T18:12:48.011Z,9.10
2019-03-19T18:18:45.435Z,8.80
2019-03-19T18:21:33.696Z,8.70
2019-03-19T18:24:23.018Z,8.60
2019-03-19T18:27:29.843Z,8.50
2019-03-19T18:30:22.908Z,8.40
2019-03-19T18:36:36.468Z,8.30
2019-03-19T18:39:26.732Z,8.20
2019-03-19T18:42:14.884Z,8.20
2019-03-19T18:45:21.914Z,8.10
2019-03-19T18:48:10.311Z,8.10
2019-03-19T18:51:17.223Z,8.00
2019-03-19T18:54:27.883Z,8.00
2019-03-19T18:57:54.582Z,7.90
2019-03-19T19:00:43.752Z,7.80
2019-03-19T19:03:50.179Z,7.70
2019-03-19T19:10:39.442Z,7.50
2019-03-19T19:16:16.138Z,7.30
2019-03-19T19:18:46.473Z,7.20
2019-03-19T19:21:16.816Z,7.20
2019-03-19T19:23:47.151Z,7.10
2019-03-19T19:26:17.515Z,7.00
2019-03-19T19:28:47.855Z,7.00
2019-03-19T19:31:18.188Z,6.90
2019-03-19T19:33:49.507Z,6.80
2019-03-19T19:36:20.233Z,6.80
2019-03-19T19:38:50.964Z,6.70
2019-03-19T19:41:21.282Z,6.70
2019-03-19T19:43:51.611Z,6.70
2019-03-19T19:46:21.945Z,6.60
2019-03-19T19:48:52.275Z,6.60
2019-03-19T19:51:22.631Z,6.50
2019-03-19T19:53:53.292Z,6.50
2019-03-19T19:56:23.649Z,6.50
2019-03-19T19:58:53.984Z,6.40
2019-03-19T20:01:24.329Z,6.40
2019-03-19T20:03:54.668Z,6.40
2019-03-19T20:06:25.093Z,6.30
2019-03-19T20:08:55.491Z,6.30
2019-03-19T20:11:25.898Z,6.20
2019-03-19T20:13:56.179Z,6.20
2019-03-19T20:16:26.506Z,6.10
2019-03-19T20:18:56.845Z,6.10
2019-03-19T20:21:27.165Z,6.00
2019-03-19T20:23:57.510Z,6.00
2019-03-19T20:26:27.913Z,5.90
2019-03-19T20:28:58.259Z,5.80
2019-03-19T20:31:28.595Z,5.80
2019-03-19T20:33:59.897Z,5.70
2019-03-19T20:36:30.236Z,5.70
2019-03-19T20:39:00.564Z,5.60
2019-03-19T20:41:32.513Z,5.60
2019-03-19T20:44:02.862Z,5.50
2019-03-19T20:46:33.206Z,5.40
2019-03-19T20:49:03.539Z,5.40
2019-03-19T20:51:33.880Z,5.30
2019-03-19T20:54:05.470Z,5.20
2019-03-19T20:56:35.813Z,5.20
2019-03-19T20:59:06.142Z,5.20
2019-03-19T21:01:36.467Z,5.10
2019-03-19T21:04:06.790Z,5.10
2019-03-19T21:06:37.425Z,5.00
2019-03-19T21:09:09.685Z,5.00
2019-03-19T21:11:40.011Z,4.90
2019-03-19T21:14:10.326Z,4.90
2019-03-19T21:16:40.667Z,4.90
2019-03-19T21:19:10.998Z,4.90
2019-03-19T21:21:41.347Z,4.80
2019-03-19T21:24:11.678Z,4.80
2019-03-19T21:26:42.019Z,4.80
2019-03-19T21:29:13.326Z,4.70
2019-03-19T21:31:43.650Z,4.70
2019-03-19T21:34:13.979Z,4.60
2019-03-19T21:36:44.313Z,4.60
2019-03-19T21:39:14.720Z,4.50
2019-03-19T21:41:45.046Z,4.50
2019-03-19T21:44:15.372Z,4.50
2019-03-19T21:46:45.706Z,4.50
2019-03-19T21:49:16.035Z,4.40
2019-03-19T21:51:46.374Z,4.40
2019-03-19T21:54:16.706Z,4.30
2019-03-19T21:56:47.042Z,4.30
2019-03-19T21:59:36.787Z,4.30
2019-03-19T22:02:07.131Z,4.20
2019-03-19T22:04:37.452Z,4.20
2019-03-19T22:07:07.792Z,4.10
2019-03-19T22:09:38.121Z,4.10
2019-03-19T22:12:08.459Z,4.10
2019-03-19T22:14:38.785Z,4.10
2019-03-19T22:17:10.195Z,4.10
2019-03-19T22:19:40.527Z,4.10
2019-03-19T22:22:10.905Z,4.00
2019-03-19T22:24:41.187Z,4.00
2019-03-19T22:27:11.523Z,4.00
2019-03-19T22:29:43.204Z,4.00
2019-03-19T22:32:25.540Z,3.90
2019-03-19T22:34:55.877Z,3.90
2019-03-19T22:37:26.215Z,3.90
2019-03-19T22:39:56.555Z,3.90
2019-03-19T22:42:26.888Z,3.90
2019-03-19T22:44:57.214Z,3.80
2019-03-19T22:47:27.551Z,3.80
2019-03-19T22:49:57.873Z,3.80
2019-03-19T22:52:28.220Z,3.80
2019-03-19T22:54:58.555Z,3.80
2019-03-19T22:57:29.867Z,3.90
2019-03-19T23:00:01.180Z,3.90
2019-03-19T23:02:33.134Z,3.90
2019-03-19T23:05:04.033Z,3.90
2019-03-19T23:07:34.537Z,3.90
2019-03-19T23:10:07.073Z,3.90
2019-03-19T23:12:37.550Z,3.80
2019-03-19T23:15:12.024Z,3.80
2019-03-19T23:17:42.356Z,3.80
2019-03-19T23:20:15.205Z,3.70
2019-03-19T23:22:45.548Z,3.70
2019-03-19T23:25:16.114Z,3.70
2019-03-19T23:27:46.531Z,3.70
2019-03-19T23:30:19.284Z,3.60
2019-03-19T23:32:49.618Z,3.60
2019-03-19T23:35:20.055Z,3.60
2019-03-19T23:37:50.376Z,3.60
2019-03-19T23:40:22.014Z,3.60
2019-03-19T23:42:52.351Z,3.60
2019-03-19T23:45:22.676Z,3.60
2019-03-19T23:47:53.015Z,3.60
2019-03-19T23:50:23.353Z,3.70
2019-03-19T23:52:53.683Z,3.80
2019-03-19T23:55:24.025Z,3.90
2019-03-19T23:57:54.365Z,4.00
